Time;durP1;ratioP1;P1;durP2;ratioP2;P2;SDS_P1;SDS_P2;PMS_P1;PMS_P2;Temp;Humidity;BMP_temperature;BMP_pressure;BME280_temperature;BME280_humidity;BME280_pressure;Samples;Min_cycle;Max_cycle;Signal;HPM_P1;HPM_P2
2021/06/15 00:02:35;;;;;;;10.02;8.95;;;;;;;20.80;57.88;101769.22;6229021;28;20248;-59
2021/06/15 00:05:55;;;;;;;8.98;7.20;;;;;;;20.65;58.36;101760.94;6226760;28;20237;-60
2021/06/15 00:09:16;;;;;;;13.57;7.75;;;;;;;20.82;57.56;101765.63;6192315;28;20236;-59
2021/06/15 00:12:37;;;;;;;12.13;8.52;;;;;;;20.46;58.62;101767.75;6223705;28;20232;-59
2021/06/15 00:16:00;;;;;;;10.40;8.00;;;;;;;20.71;57.79;101766.94;6225489;28;20507;-59
2021/06/15 00:19:21;;;;;;;12.13;9.15;;;;;;;20.78;57.25;101765.75;6219920;28;20323;-59
2021/06/15 00:22:43;;;;;;;8.43;7.57;;;;;;;20.62;57.86;101763.66;6222739;28;20233;-59
2021/06/15 00:26:04;;;;;;;10.32;6.95;;;;;;;20.37;58.57;101753.06;6235572;28;20564;-60
2021/06/15 00:29:25;;;;;;;10.52;7.45;;;;;;;20.56;58.03;101755.06;6231840;28;20232;-59
2021/06/15 00:32:47;;;;;;;9.68;7.65;;;;;;;20.44;58.50;101765.16;6228465;28;20578;-59
2021/06/15 00:36:09;;;;;;;10.65;7.35;;;;;;;20.73;57.54;101770.38;6225677;28;20253;-59
2021/06/15 00:39:29;;;;;;;10.98;6.82;;;;;;;20.69;57.35;101768.78;6227337;28;20307;-60
2021/06/15 00:42:51;;;;;;;9.10;7.35;;;;;;;21.00;56.53;101758.75;6223078;28;20721;-59
2021/06/15 00:46:12;;;;;;;10.32;7.93;;;;;;;20.49;58.12;101762.38;6223480;28;20232;-59
2021/06/15 00:49:36;;;;;;;12.30;7.68;;;;;;;20.48;58.10;101765.94;6228379;28;20322;-60
2021/06/15 00:52:58;;;;;;;12.10;7.65;;;;;;;20.31;58.95;101765.66;6224617;28;20232;-60
2021/06/15 00:56:20;;;;;;;12.75;9.10;;;;;;;20.38;58.42;101773.31;6197956;28;20240;-60
2021/06/15 00:59:41;;;;;;;9.70;7.68;;;;;;;20.55;58.17;101772.75;6221709;28;20228;-60
2021/06/15 01:03:02;;;;;;;10.18;8.02;;;;;;;20.44;58.15;101767.81;6227247;28;20241;-60
2021/06/15 01:06:35;;;;;;;10.02;8.07;;;;;;;20.61;57.73;101772.53;6223187;28;20225;-59
2021/06/15 01:10:04;;;;;;;10.68;8.10;;;;;;;20.27;58.87;101784.25;6224354;28;20224;-59
2021/06/15 01:13:42;;;;;;;12.80;8.55;;;;;;;20.06;59.66;101788.53;6221407;28;20536;-60
2021/06/15 01:17:11;;;;;;;11.65;7.88;;;;;;;20.17;59.29;101782.00;6228248;28;20231;-59
2021/06/15 01:20:36;;;;;;;12.88;6.53;;;;;;;20.30;58.42;101782.44;6223776;28;20240;-59
2021/06/15 01:24:16;;;;;;;12.07;7.80;;;;;;;20.02;59.02;101773.66;6221455;28;20240;-59
2021/06/15 01:27:50;;;;;;;8.68;7.63;;;;;;;20.22;58.42;101766.81;6221716;28;20229;-60
2021/06/15 01:31:17;;;;;;;8.93;6.03;;;;;;;20.26;58.36;101769.34;6231428;28;20236;-60
2021/06/15 01:34:42;;;;;;;13.40;7.32;;;;;;;20.21;58.42;101765.97;6217206;28;20241;-61
2021/06/15 01:38:10;;;;;;;10.43;7.80;;;;;;;20.02;59.23;101768.38;6225397;28;20588;-59
2021/06/15 01:41:34;;;;;;;9.85;6.85;;;;;;;20.37;57.97;101770.72;6226529;28;20231;-59
2021/06/15 01:45:03;;;;;;;12.82;7.32;;;;;;;20.27;58.31;101773.69;6224765;28;20224;-59
2021/06/15 01:48:32;;;;;;;10.50;7.47;;;;;;;20.34;58.23;101771.72;6220430;28;20228;-59
2021/06/15 01:51:55;;;;;;;12.48;8.38;;;;;;;19.77;59.89;101767.47;6225973;28;20220;-60
2021/06/15 01:55:18;;;;;;;9.32;7.22;;;;;;;19.93;59.41;101767.81;6229608;28;20315;-59
2021/06/15 01:58:48;;;;;;;13.43;7.95;;;;;;;19.98;58.98;101776.47;6223786;28;20675;-58
2021/06/15 02:02:13;;;;;;;11.50;6.40;;;;;;;20.19;58.59;101773.09;6221988;28;20515;-59
2021/06/15 02:05:40;;;;;;;7.90;6.50;;;;;;;20.06;58.82;101780.59;6224903;28;20236;-59
2021/06/15 02:09:04;;;;;;;12.90;7.63;;;;;;;20.14;58.29;101790.91;6230149;28;20248;-59
2021/06/15 02:12:42;;;;;;;11.23;6.55;;;;;;;20.39;57.50;101798.00;6224634;28;20369;-61
2021/06/15 02:16:28;;;;;;;14.90;6.05;;;;;;;20.25;57.85;101795.81;6219492;28;20312;-60
2021/06/15 02:20:16;;;;;;;12.75;7.35;;;;;;;20.14;58.03;101808.53;6225295;28;20274;-60
2021/06/15 02:23:40;;;;;;;8.80;5.72;;;;;;;20.25;57.83;101816.97;6223604;28;20652;-59
2021/06/15 02:27:02;;;;;;;9.15;5.13;;;;;;;20.18;57.75;101816.34;6230623;28;20676;-58
2021/06/15 02:30:24;;;;;;;10.55;5.40;;;;;;;20.05;57.67;101820.31;6230577;28;20241;-59
2021/06/15 02:33:54;;;;;;;11.20;5.07;;;;;;;20.21;57.12;101825.94;6229883;28;20235;-59
2021/06/15 02:37:24;;;;;;;12.27;5.55;;;;;;;19.92;58.17;101824.25;6244676;28;20705;-56
2021/06/15 02:40:45;;;;;;;10.30;4.70;;;;;;;20.17;56.97;101819.03;6220196;28;20677;-60
2021/06/15 02:44:08;;;;;;;10.35;5.38;;;;;;;20.04;57.03;101824.69;6222948;28;20233;-60
2021/06/15 02:47:35;;;;;;;5.75;4.30;;;;;;;19.52;58.10;101822.81;6233603;28;20229;-59
2021/06/15 02:50:57;;;;;;;9.57;3.80;;;;;;;19.80;57.56;101833.44;6227630;28;20220;-60
2021/06/15 02:54:22;;;;;;;11.65;4.80;;;;;;;19.60;57.91;101844.56;6235547;28;20233;-58
2021/06/15 02:57:45;;;;;;;8.43;4.05;;;;;;;19.60;57.43;101848.09;6228347;28;20666;-60
2021/06/15 03:01:07;;;;;;;8.27;5.13;;;;;;;19.58;57.59;101842.00;6226001;28;20684;-58
2021/06/15 03:04:33;;;;;;;17.23;14.57;;;;;;;19.70;57.43;101856.63;6220613;28;20229;-58
2021/06/15 03:07:55;;;;;;;11.20;6.50;;;;;;;19.92;56.11;101842.75;6224820;28;20228;-59
2021/06/15 03:11:23;;;;;;;8.32;4.60;;;;;;;19.93;55.85;101844.47;6213446;28;20682;-59
2021/06/15 03:14:49;;;;;;;7.80;4.15;;;;;;;19.36;57.28;101844.41;6225637;28;20538;-54
2021/06/15 03:18:20;;;;;;;13.38;5.25;;;;;;;19.54;56.62;101852.69;6218297;28;20231;-60
2021/06/15 03:21:49;;;;;;;5.93;3.15;;;;;;;19.54;57.11;101861.50;6222566;28;20580;-59
2021/06/15 03:25:16;;;;;;;9.18;3.72;;;;;;;19.71;55.61;101853.03;6227321;28;20338;-59
2021/06/15 03:28:42;;;;;;;8.15;4.00;;;;;;;19.39;56.33;101857.53;6221683;28;20257;-59
2021/06/15 03:32:07;;;;;;;10.43;4.35;;;;;;;19.16;56.69;101859.97;6223303;28;20229;-59
2021/06/15 03:35:32;;;;;;;4.40;2.97;;;;;;;19.36;56.54;101868.19;6226889;28;20224;-59
2021/06/15 03:38:56;;;;;;;9.82;4.05;;;;;;;19.31;56.24;101870.09;6219072;28;20676;-59
2021/06/15 03:42:21;;;;;;;11.98;4.65;;;;;;;19.59;55.28;101879.84;6223004;28;20233;-59
2021/06/15 03:45:49;;;;;;;8.55;3.63;;;;;;;19.18;56.41;101881.94;6228890;28;20236;-61
2021/06/15 03:49:12;;;;;;;7.00;4.07;;;;;;;19.10;56.96;101882.13;6225327;28;20236;-59
2021/06/15 03:52:36;;;;;;;7.80;3.80;;;;;;;19.38;55.55;101871.63;6227849;28;20229;-59
2021/06/15 03:55:59;;;;;;;7.72;4.80;;;;;;;19.25;56.14;101863.22;6221455;28;20225;-59
2021/06/15 03:59:24;;;;;;;7.68;4.80;;;;;;;19.43;55.68;101859.16;6206343;28;20618;-58
2021/06/15 04:02:49;;;;;;;8.27;4.13;;;;;;;19.64;54.65;101868.22;6223468;28;20225;-59
2021/06/15 04:06:10;;;;;;;6.57;3.30;;;;;;;19.56;54.84;101879.94;6229147;28;20240;-59
2021/06/15 04:09:38;;;;;;;6.18;3.95;;;;;;;19.68;54.41;101887.50;6221518;28;20233;-58
2021/06/15 04:13:03;;;;;;;10.07;3.72;;;;;;;19.47;54.88;101900.44;6217000;28;20529;-58
2021/06/15 04:16:24;;;;;;;9.38;5.63;;;;;;;19.02;56.07;101895.56;6220522;28;20233;-59
2021/06/15 04:19:49;;;;;;;11.00;6.03;;;;;;;19.08;55.60;101895.38;6223784;28;20228;-59
2021/06/15 04:23:11;;;;;;;13.30;3.67;;;;;;;19.13;55.50;101891.75;6229794;28;20229;-59
2021/06/15 04:26:34;;;;;;;7.63;3.53;;;;;;;19.24;55.05;101918.72;6227993;28;20236;-59
2021/06/15 04:29:55;;;;;;;7.75;3.45;;;;;;;19.50;54.16;101917.97;6216427;28;20534;-60
2021/06/15 04:33:17;;;;;;;7.45;3.72;;;;;;;19.24;54.88;101916.06;6225795;28;20236;-59
2021/06/15 04:36:41;;;;;;;7.57;3.15;;;;;;;19.15;55.25;101932.16;6225359;28;20272;-60
2021/06/15 04:40:12;;;;;;;4.65;2.75;;;;;;;19.04;55.69;101935.97;6220781;28;20272;-60
2021/06/15 04:43:38;;;;;;;5.47;3.17;;;;;;;19.21;54.65;101947.84;6234380;28;20229;-60
2021/06/15 04:47:03;;;;;;;10.27;3.60;;;;;;;19.30;54.39;101949.38;6222482;28;20238;-60
2021/06/15 04:50:27;;;;;;;7.60;3.08;;;;;;;19.16;54.57;101940.03;6221515;28;20237;-61
2021/06/15 04:53:50;;;;;;;8.88;3.92;;;;;;;18.97;55.23;101941.44;6214146;28;20232;-59
2021/06/15 04:57:14;;;;;;;11.43;3.33;;;;;;;18.92;55.20;101938.94;6216151;28;20225;-59
2021/06/15 05:00:36;;;;;;;9.40;3.33;;;;;;;19.21;54.54;101939.91;6222303;28;20260;-58
2021/06/15 05:03:58;;;;;;;6.63;2.88;;;;;;;19.10;54.75;101931.44;6222214;28;20237;-58
2021/06/15 05:07:20;;;;;;;6.18;3.47;;;;;;;18.95;55.16;101920.38;6214653;28;20245;-59
2021/06/15 05:10:44;;;;;;;9.32;4.13;;;;;;;18.75;55.64;101931.41;6221998;28;20232;-59
2021/06/15 05:14:07;;;;;;;10.57;3.33;;;;;;;18.84;55.29;101922.41;6216878;28;20228;-61
2021/06/15 05:17:30;;;;;;;7.43;3.67;;;;;;;18.79;55.36;101937.50;6222102;28;20512;-59
2021/06/15 05:20:52;;;;;;;9.13;4.35;;;;;;;19.27;53.91;101934.50;6213387;28;20255;-61
2021/06/15 05:24:30;;;;;;;5.93;3.78;;;;;;;18.98;54.16;101929.97;6227930;28;20815;-60
2021/06/15 05:27:54;;;;;;;7.45;3.17;;;;;;;18.61;54.89;101944.06;6225644;28;20229;-58
2021/06/15 05:31:14;;;;;;;6.63;2.88;;;;;;;18.98;53.82;101951.09;6221301;28;20315;-59
2021/06/15 05:34:36;;;;;;;11.90;3.35;;;;;;;19.02;53.14;101950.97;6221537;28;20236;-60
2021/06/15 05:37:57;;;;;;;5.72;2.75;;;;;;;19.37;51.74;101967.66;6226374;28;20225;-59
2021/06/15 05:41:20;;;;;;;7.82;2.85;;;;;;;19.41;51.73;101961.38;6220677;28;20228;-60
2021/06/15 05:44:42;;;;;;;9.60;4.50;;;;;;;19.66;50.58;101955.41;6209610;28;20567;-58
2021/06/15 05:48:03;;;;;;;5.97;2.85;;;;;;;19.55;50.39;101962.75;6211667;28;20231;-59
2021/06/15 05:51:24;;;;;;;5.53;2.58;;;;;;;19.44;50.87;101963.03;6218369;28;20610;-58
2021/06/15 05:54:45;;;;;;;8.63;3.67;;;;;;;19.83;50.29;101963.72;6217535;28;20224;-60
2021/06/15 05:58:06;;;;;;;6.97;2.03;;;;;;;19.79;49.81;101972.66;6223434;28;20236;-59
2021/06/15 06:01:29;;;;;;;7.63;2.47;;;;;;;20.32;49.02;101965.78;6220891;28;20261;-60
2021/06/15 06:05:03;;;;;;;4.47;2.00;;;;;;;20.46;48.20;101969.69;6225498;28;20312;-60
2021/06/15 06:08:24;;;;;;;6.00;2.58;;;;;;;20.37;47.74;101974.41;6222037;28;20228;-60
2021/06/15 06:11:45;;;;;;;6.63;2.42;;;;;;;20.49;47.75;101987.28;6228045;28;20847;-62
2021/06/15 06:15:07;;;;;;;6.18;2.17;;;;;;;20.55;46.63;101984.44;6225820;28;20220;-60
2021/06/15 06:18:30;;;;;;;7.70;2.67;;;;;;;20.54;47.21;101993.25;6224935;28;20232;-59
2021/06/15 06:21:51;;;;;;;3.35;1.85;;;;;;;20.76;47.26;101985.53;6221847;28;20248;-61
2021/06/15 06:25:14;;;;;;;4.95;2.55;;;;;;;21.21;44.56;101997.25;6229103;28;20267;-60
2021/06/15 06:28:35;;;;;;;4.43;2.08;;;;;;;21.77;43.64;101999.69;6230886;28;20236;-60
2021/06/15 06:31:56;;;;;;;4.55;2.20;;;;;;;21.75;43.28;101998.88;6219708;28;20252;-61
2021/06/15 06:35:18;;;;;;;5.88;2.45;;;;;;;21.86;44.24;101989.63;6230542;28;20634;-60
2021/06/15 06:38:39;;;;;;;3.88;2.10;;;;;;;21.31;44.62;101996.00;6222466;28;20241;-59
2021/06/15 06:42:00;;;;;;;3.80;2.33;;;;;;;21.38;44.40;102007.25;6227239;28;20240;-59
2021/06/15 06:45:21;;;;;;;6.05;2.72;;;;;;;21.34;44.40;102014.44;6221350;28;20241;-61
2021/06/15 06:48:42;;;;;;;8.93;2.08;;;;;;;21.00;44.47;102028.84;6219664;28;20253;-60
2021/06/15 06:52:05;;;;;;;3.88;1.92;;;;;;;21.41;44.91;102033.63;6225387;28;20233;-60
2021/06/15 06:55:28;;;;;;;3.38;2.53;;;;;;;21.73;44.21;102035.19;6220450;28;20341;-62
2021/06/15 06:58:49;;;;;;;5.72;2.38;;;;;;;21.94;42.39;102028.19;6226960;28;20237;-60
2021/06/15 07:02:10;;;;;;;4.95;2.15;;;;;;;22.17;41.46;102032.63;6228385;28;20236;-59
2021/06/15 07:05:31;;;;;;;4.40;2.10;;;;;;;22.12;42.32;102031.94;6236279;28;20331;-57
2021/06/15 07:08:53;;;;;;;5.63;2.00;;;;;;;22.10;42.20;102040.88;6230408;28;20654;-59
2021/06/15 07:12:15;;;;;;;5.32;2.08;;;;;;;22.37;42.71;102044.28;6230597;28;20262;-56
2021/06/15 07:15:36;;;;;;;6.30;2.35;;;;;;;21.48;43.40;102031.66;6225854;28;20228;-59
2021/06/15 07:18:57;;;;;;;5.93;2.08;;;;;;;21.33;44.90;102035.69;6230961;28;20534;-60
2021/06/15 07:22:17;;;;;;;4.78;2.05;;;;;;;21.94;43.64;102040.59;6228480;28;20237;-59
2021/06/15 07:25:40;;;;;;;5.47;1.95;;;;;;;21.59;43.26;102048.91;6229881;28;20458;-59
2021/06/15 07:29:01;;;;;;;5.25;1.77;;;;;;;21.52;41.86;102042.13;6222654;28;20606;-60
2021/06/15 07:32:23;;;;;;;4.40;1.77;;;;;;;21.57;42.32;102044.59;6217142;28;20225;-56
2021/06/15 07:35:44;;;;;;;6.57;2.22;;;;;;;21.75;42.01;102043.06;6225270;28;20328;-61
2021/06/15 07:39:05;;;;;;;3.95;2.08;;;;;;;22.32;41.09;102043.59;6226066;28;20847;-60
2021/06/15 07:42:29;;;;;;;4.47;1.42;;;;;;;21.64;38.49;102035.50;6223343;28;20225;-59
2021/06/15 07:45:50;;;;;;;7.57;1.95;;;;;;;22.46;38.72;102043.06;6217940;28;20237;-60
2021/06/15 07:49:11;;;;;;;5.13;1.50;;;;;;;22.78;37.38;102033.81;6212170;28;20229;-58
2021/06/15 07:52:34;;;;;;;4.05;2.05;;;;;;;22.76;38.40;102033.88;6223126;28;20233;-58
2021/06/15 07:55:55;;;;;;;2.97;1.77;;;;;;;22.22;38.33;102043.06;6225213;28;20240;-60
2021/06/15 07:59:17;;;;;;;4.90;2.45;;;;;;;22.68;39.27;102025.34;6224183;28;20505;-60
2021/06/15 08:02:38;;;;;;;7.63;2.15;;;;;;;23.18;37.32;102029.50;6216959;28;20353;-61
2021/06/15 08:05:59;;;;;;;2.97;1.40;;;;;;;23.16;37.16;102036.66;6220938;28;20512;-61
2021/06/15 08:09:20;;;;;;;4.50;1.48;;;;;;;22.79;38.93;102039.03;6227164;28;20328;-59
2021/06/15 08:12:41;;;;;;;4.85;1.58;;;;;;;22.19;38.91;102052.00;6224041;28;20232;-60
2021/06/15 08:16:04;;;;;;;4.05;2.05;;;;;;;22.98;37.85;102044.44;6225783;28;20228;-60
2021/06/15 08:19:25;;;;;;;5.20;1.83;;;;;;;23.17;37.70;102043.72;6225278;28;20233;-61
2021/06/15 08:22:46;;;;;;;6.75;2.83;;;;;;;22.07;38.89;102059.56;6226461;28;20229;-60
2021/06/15 08:26:06;;;;;;;4.68;1.83;;;;;;;22.12;40.07;102053.16;6222478;28;20293;-61
2021/06/15 08:29:27;;;;;;;4.72;2.75;;;;;;;22.20;40.07;102055.53;6217804;28;20225;-60
2021/06/15 08:32:50;;;;;;;2.72;1.25;;;;;;;22.77;38.86;102042.69;6228038;28;20335;-59
2021/06/15 08:36:11;;;;;;;3.42;1.80;;;;;;;22.98;38.47;102039.13;6228520;28;20558;-59
2021/06/15 08:39:32;;;;;;;4.05;1.98;;;;;;;23.15;37.83;102045.59;6226394;28;20228;-61
2021/06/15 08:42:53;;;;;;;2.50;1.60;;;;;;;23.09;38.34;102036.06;6224991;28;20224;-60
2021/06/15 08:46:15;;;;;;;6.30;2.03;;;;;;;22.72;37.83;102034.03;6239920;28;20231;-61
2021/06/15 08:49:37;;;;;;;4.88;1.40;;;;;;;22.43;38.61;102041.41;6231748;28;20244;-61
2021/06/15 08:52:58;;;;;;;3.58;1.90;;;;;;;22.13;38.28;102041.63;6233119;28;20233;-59
2021/06/15 08:56:23;;;;;;;4.50;1.75;;;;;;;22.21;38.36;102052.78;6217202;28;20286;-60
2021/06/15 08:59:44;;;;;;;4.72;1.88;;;;;;;22.85;38.52;102034.41;6223750;28;20228;-60
2021/06/15 09:03:05;;;;;;;5.55;2.47;;;;;;;23.39;36.08;102030.34;6227634;28;20216;-60
2021/06/15 09:06:27;;;;;;;2.42;1.55;;;;;;;23.42;36.93;102037.31;6225896;28;20971;-61
2021/06/15 09:09:50;;;;;;;6.25;2.10;;;;;;;23.65;35.46;102034.53;6222176;28;20232;-60
2021/06/15 09:13:32;;;;;;;2.70;1.42;;;;;;;23.24;36.41;102037.19;6230297;28;20665;-59
2021/06/15 09:16:53;;;;;;;5.85;2.03;;;;;;;23.65;36.48;102050.47;6228927;28;20224;-59
2021/06/15 09:20:19;;;;;;;4.13;1.50;;;;;;;23.08;35.34;102039.63;6226144;28;20232;-60
2021/06/15 09:23:42;;;;;;;4.40;1.83;;;;;;;24.15;34.65;102039.31;6232213;28;20233;-60
2021/06/15 09:27:06;;;;;;;6.15;2.70;;;;;;;24.13;34.94;102030.56;6224242;28;20236;-60
2021/06/15 09:30:30;;;;;;;8.73;2.63;;;;;;;23.27;36.13;102037.06;6224677;28;20221;-61
2021/06/15 09:33:51;;;;;;;6.93;2.17;;;;;;;23.54;36.33;102039.47;6233281;28;20442;-61
2021/06/15 09:37:12;;;;;;;5.60;1.92;;;;;;;23.58;35.64;102038.38;6237871;28;20228;-60
2021/06/15 09:40:37;;;;;;;6.53;2.13;;;;;;;23.55;36.61;102039.41;6230503;28;20237;-62
2021/06/15 09:44:13;;;;;;;4.68;2.53;;;;;;;23.29;35.46;102037.88;6225439;28;20221;-60
2021/06/15 09:47:34;;;;;;;5.57;1.80;;;;;;;23.55;35.36;102049.16;6229412;28;20605;-59
2021/06/15 09:50:57;;;;;;;3.67;1.50;;;;;;;21.90;37.56;102047.78;6228350;28;20268;-60
2021/06/15 09:54:37;;;;;;;4.28;1.40;;;;;;;23.45;35.85;102031.88;6227423;28;20229;-64
2021/06/15 09:58:00;;;;;;;3.60;1.20;;;;;;;24.37;32.73;102041.84;6229322;28;20225;-64
2021/06/15 10:01:26;;;;;;;3.28;1.27;;;;;;;24.77;33.61;102041.72;6230590;28;20228;-62
2021/06/15 10:04:48;;;;;;;5.63;1.73;;;;;;;24.42;34.02;102041.63;6226648;28;20221;-59
2021/06/15 10:08:13;;;;;;;2.80;1.42;;;;;;;23.76;34.00;102045.53;6234050;28;20232;-57
2021/06/15 10:11:34;;;;;;;4.38;1.90;;;;;;;24.79;33.28;102036.34;6226366;28;20591;-59
2021/06/15 10:14:57;;;;;;;3.67;1.40;;;;;;;24.81;33.59;102048.63;6229114;28;20271;-60
2021/06/15 10:18:18;;;;;;;3.47;1.38;;;;;;;24.23;34.11;102046.09;6226632;28;20232;-59
2021/06/15 10:21:38;;;;;;;5.68;2.08;;;;;;;24.34;33.78;102046.47;6226189;28;20326;-58
2021/06/15 10:25:00;;;;;;;2.97;1.08;;;;;;;23.76;34.77;102052.66;6221705;28;20268;-59
2021/06/15 10:28:22;;;;;;;3.42;1.60;;;;;;;24.24;34.51;102037.19;6231187;28;20264;-59
2021/06/15 10:31:48;;;;;;;3.75;1.92;;;;;;;23.95;33.47;102048.25;6226751;28;20232;-58
2021/06/15 10:35:13;;;;;;;4.75;1.88;;;;;;;24.85;32.74;102039.53;6229337;28;20232;-59
2021/06/15 10:38:43;;;;;;;4.00;1.38;;;;;;;24.84;31.88;102032.50;6229866;28;20324;-58
2021/06/15 10:42:11;;;;;;;5.60;1.63;;;;;;;25.15;32.08;102033.63;6227259;28;20236;-58
2021/06/15 10:45:33;;;;;;;3.47;1.35;;;;;;;25.34;31.41;102034.41;6221568;28;20228;-60
2021/06/15 10:49:00;;;;;;;2.75;1.50;;;;;;;24.91;31.76;102028.59;6225673;28;20598;-59
2021/06/15 10:52:24;;;;;;;4.50;1.25;;;;;;;24.99;32.18;102030.00;6205553;28;20678;-59
2021/06/15 10:55:48;;;;;;;2.83;1.30;;;;;;;25.15;31.47;102020.28;6224650;28;20232;-58
2021/06/15 10:59:10;;;;;;;4.28;1.77;;;;;;;24.87;32.44;102020.81;6214976;28;20228;-58
2021/06/15 11:02:32;;;;;;;3.38;1.27;;;;;;;24.50;32.59;102023.47;6205570;28;20233;-59
2021/06/15 11:05:57;;;;;;;4.82;1.65;;;;;;;25.08;31.83;102024.19;6220074;28;20602;-58
2021/06/15 11:09:25;;;;;;;2.72;1.67;;;;;;;26.33;30.93;102023.78;6225611;28;20601;-57
2021/06/15 11:12:47;;;;;;;2.45;1.30;;;;;;;26.49;29.75;102027.28;6227156;28;20228;-56
2021/06/15 11:16:20;;;;;;;3.53;1.40;;;;;;;24.59;32.54;102016.88;6221449;28;20256;-58
2021/06/15 11:19:41;;;;;;;2.33;1.52;;;;;;;24.84;32.35;102021.84;6221054;28;20251;-60
2021/06/15 11:23:29;;;;;;;4.38;1.50;;;;;;;25.61;31.61;102025.91;6223883;28;20229;-60
2021/06/15 11:26:51;;;;;;;3.95;1.55;;;;;;;26.21;31.19;102021.78;6219072;28;20232;-58
2021/06/15 11:30:24;;;;;;;3.75;1.98;;;;;;;24.28;32.69;102014.81;6213557;28;20232;-58
2021/06/15 11:34:19;;;;;;;4.93;1.75;;;;;;;25.04;33.05;102017.31;6199601;28;20229;-57
2021/06/15 11:37:45;;;;;;;3.78;1.23;;;;;;;24.81;33.19;102021.97;6223662;28;20232;-59
2021/06/15 11:41:07;;;;;;;2.75;1.25;;;;;;;25.26;32.12;102017.06;6217492;28;20237;-59
2021/06/15 11:44:48;;;;;;;4.50;1.85;;;;;;;24.85;32.86;102026.22;6220958;28;20638;-59
2021/06/15 11:48:33;;;;;;;3.67;1.38;;;;;;;24.47;33.30;102018.31;6213788;28;20331;-58
2021/06/15 11:51:54;;;;;;;6.03;2.20;;;;;;;24.78;33.44;102014.16;6216735;28;20255;-60
2021/06/15 11:55:16;;;;;;;3.50;2.00;;;;;;;24.60;33.02;102007.94;6221989;28;20236;-58
2021/06/15 11:58:43;;;;;;;3.25;1.63;;;;;;;24.71;31.68;102016.25;6217143;28;20240;-60
2021/06/15 12:02:04;;;;;;;2.75;1.17;;;;;;;25.97;30.88;102014.19;6220940;28;20244;-60
2021/06/15 12:05:25;;;;;;;4.97;2.15;;;;;;;25.80;29.78;102014.22;6210433;28;20229;-58
2021/06/15 12:08:47;;;;;;;2.28;1.45;;;;;;;24.31;32.42;102014.66;6219437;28;20248;-55
2021/06/15 12:12:10;;;;;;;13.93;2.38;;;;;;;24.56;32.65;102009.91;6219661;28;20360;-59
2021/06/15 12:15:42;;;;;;;2.83;1.67;;;;;;;25.28;31.91;102008.09;6223182;28;20233;-59
2021/06/15 12:19:03;;;;;;;3.58;1.92;;;;;;;25.82;31.88;102017.66;6218668;28;20224;-59
2021/06/15 12:22:27;;;;;;;2.95;1.65;;;;;;;24.93;32.97;102000.06;6223034;28;20460;-60
2021/06/15 12:25:48;;;;;;;5.68;2.25;;;;;;;25.16;32.78;102006.00;6218534;28;20228;-59
2021/06/15 12:29:11;;;;;;;2.88;1.38;;;;;;;26.59;30.78;101995.59;6223929;28;20233;-59
2021/06/15 12:32:45;;;;;;;3.13;1.55;;;;;;;26.24;30.81;102000.25;6221670;28;20232;-59
2021/06/15 12:36:08;;;;;;;4.07;2.15;;;;;;;26.28;30.47;102009.81;6220915;28;20344;-59
2021/06/15 12:39:33;;;;;;;4.80;2.53;;;;;;;24.76;32.77;102003.59;6222924;28;20228;-56
2021/06/15 12:42:54;;;;;;;5.05;2.05;;;;;;;25.48;32.44;102008.84;6223488;28;20232;-59
2021/06/15 12:46:22;;;;;;;4.00;1.42;;;;;;;26.42;30.71;101982.31;6226701;28;20285;-57
2021/06/15 12:49:51;;;;;;;2.40;1.27;;;;;;;27.44;28.79;101987.88;6225260;28;21181;-60
2021/06/15 12:53:12;;;;;;;2.05;1.38;;;;;;;27.49;28.89;101986.66;6228607;28;20330;-60
2021/06/15 12:56:34;;;;;;;4.40;1.77;;;;;;;27.02;29.46;101992.19;6221932;28;20225;-59
2021/06/15 13:00:00;;;;;;;2.30;1.30;;;;;;;26.16;29.99;101994.50;6224611;28;21796;-56
2021/06/15 13:03:21;;;;;;;3.53;1.92;;;;;;;25.81;31.33;101990.13;6218952;28;20240;-60
2021/06/15 13:06:43;;;;;;;3.53;1.55;;;;;;;25.80;31.63;101992.88;6227035;28;20232;-59
2021/06/15 13:10:16;;;;;;;2.92;2.00;;;;;;;26.75;30.93;101989.34;6224801;28;20618;-58
2021/06/15 13:13:37;;;;;;;7.20;3.08;;;;;;;27.58;27.70;101993.22;6219218;28;20538;-60
2021/06/15 13:17:00;;;;;;;4.15;2.38;;;;;;;26.70;29.45;101986.97;6218916;28;20536;-58
2021/06/15 13:20:23;;;;;;;4.28;1.60;;;;;;;27.34;28.19;101992.09;6206744;28;20232;-57
2021/06/15 13:23:45;;;;;;;3.03;1.52;;;;;;;26.03;30.16;101999.66;6203256;28;20268;-59
2021/06/15 13:27:21;;;;;;;3.25;1.98;;;;;;;25.88;31.36;102004.00;6215895;28;20235;-59
2021/06/15 13:30:42;;;;;;;6.38;1.88;;;;;;;25.57;31.48;102004.78;6224221;28;20232;-58
2021/06/15 13:34:06;;;;;;;8.07;3.13;;;;;;;29.13;25.82;101987.59;6219568;28;20283;-59
2021/06/15 13:37:27;;;;;;;3.53;1.80;;;;;;;31.84;21.89;101978.13;6213743;28;20225;-60
2021/06/15 13:40:51;;;;;;;2.38;1.55;;;;;;;29.43;25.59;101989.13;6205559;28;20319;-60
2021/06/15 13:44:15;;;;;;;9.82;2.10;;;;;;;28.16;26.34;101999.38;6202499;28;20256;-58
2021/06/15 13:47:38;;;;;;;2.67;1.83;;;;;;;26.77;28.79;101990.97;6196827;28;20236;-58
2021/06/15 13:50:58;;;;;;;2.22;1.52;;;;;;;28.24;26.96;101988.19;6209818;28;20232;-59
2021/06/15 13:54:19;;;;;;;3.92;2.50;;;;;;;29.67;25.19;101980.28;6208488;28;20325;-57
2021/06/15 13:57:42;;;;;;;4.03;2.15;;;;;;;26.57;28.35;101972.56;6199094;28;20229;-58
2021/06/15 14:01:04;;;;;;;5.38;2.22;;;;;;;26.24;29.17;101976.22;6209540;28;20270;-58
2021/06/15 14:04:25;;;;;;;3.13;1.45;;;;;;;27.47;27.75;101972.50;6206926;28;20472;-61
2021/06/15 14:07:46;;;;;;;2.45;1.52;;;;;;;28.31;26.89;101976.09;6209543;28;20605;-60
2021/06/15 14:11:07;;;;;;;1.90;1.38;;;;;;;28.76;25.02;101970.47;6220007;28;20236;-61
2021/06/15 14:14:29;;;;;;;3.38;1.25;;;;;;;28.83;26.13;101961.06;6201077;28;20232;-60
2021/06/15 14:17:50;;;;;;;6.03;1.50;;;;;;;28.38;26.84;101958.69;6241648;28;20237;-61
2021/06/15 14:21:11;;;;;;;5.40;2.15;;;;;;;27.77;27.35;101955.47;6225788;28;20233;-60
2021/06/15 14:24:32;;;;;;;6.57;5.97;;;;;;;27.17;28.72;101958.31;6226840;28;20225;-61
2021/06/15 14:27:53;;;;;;;4.18;2.15;;;;;;;27.08;29.88;101954.38;6226905;28;20668;-61
2021/06/15 14:31:16;;;;;;;5.75;1.75;;;;;;;27.85;28.09;101949.63;6224738;28;20248;-60
2021/06/15 14:34:36;;;;;;;1.77;1.40;;;;;;;27.54;28.46;101964.09;6228046;28;20361;-60
2021/06/15 14:37:57;;;;;;;3.67;1.10;;;;;;;27.54;28.48;101956.91;6219984;28;20229;-60
2021/06/15 14:41:19;;;;;;;10.15;9.35;;;;;;;27.27;28.63;101965.69;6221411;28;20508;-60
2021/06/15 14:44:40;;;;;;;4.93;4.00;;;;;;;27.24;29.51;101965.91;6227112;28;20523;-60
2021/06/15 14:48:03;;;;;;;3.03;1.48;;;;;;;27.00;28.96;101956.66;6222913;28;20484;-60
2021/06/15 14:51:23;;;;;;;4.22;1.52;;;;;;;27.04;29.55;101963.53;6230048;28;20343;-59
2021/06/15 14:54:44;;;;;;;2.78;1.58;;;;;;;26.26;30.60;101961.84;6229037;28;20311;-61
2021/06/15 14:58:06;;;;;;;6.85;6.15;;;;;;;26.19;30.66;101952.47;6227872;28;20354;-60
2021/06/15 15:01:27;;;;;;;9.13;7.85;;;;;;;26.41;30.84;101945.91;6219677;28;20228;-60
2021/06/15 15:04:49;;;;;;;5.93;2.20;;;;;;;26.12;30.51;101946.63;6233375;28;20228;-60
2021/06/15 15:08:10;;;;;;;2.42;2.20;;;;;;;26.15;31.65;101942.03;6228782;28;20240;-60
2021/06/15 15:11:32;;;;;;;3.85;1.85;;;;;;;25.46;31.91;101949.41;6229138;28;20220;-59
2021/06/15 15:14:53;;;;;;;4.50;1.80;;;;;;;26.24;31.27;101946.88;6222578;28;20229;-60
2021/06/15 15:18:14;;;;;;;5.60;1.67;;;;;;;26.65;30.85;101940.94;6230984;28;20252;-60
2021/06/15 15:21:36;;;;;;;4.30;2.28;;;;;;;27.45;30.50;101941.44;6220272;28;20256;-61
2021/06/15 15:24:57;;;;;;;7.15;1.80;;;;;;;27.05;29.44;101950.09;6228408;28;21122;-60
2021/06/15 15:28:18;;;;;;;4.93;1.95;;;;;;;26.11;31.35;101936.91;6228415;28;20232;-62
2021/06/15 15:31:38;;;;;;;4.85;1.65;;;;;;;26.21;31.27;101931.00;6217782;28;20232;-55
2021/06/15 15:35:00;;;;;;;2.95;1.90;;;;;;;26.73;30.84;101938.66;6227611;28;20244;-55
2021/06/15 15:38:23;;;;;;;4.05;1.83;;;;;;;26.84;30.07;101946.06;6228817;28;20311;-55
2021/06/15 15:41:43;;;;;;;25.05;22.35;;;;;;;26.90;30.40;101941.19;6221710;28;20232;-52
2021/06/15 15:45:07;;;;;;;3.60;1.63;;;;;;;26.61;29.35;101934.91;6226497;28;20258;-53
2021/06/15 15:48:33;;;;;;;441.67;412.48;;;;;;;27.11;31.15;101927.47;6224387;28;20292;-54